sensor_id;sensor_type;location;lat;lon;timestamp;P1;durP1;ratioP1;P2;durP2;ratioP2
13012;SDS011;22580;57.670;12.006;2022-10-16T00:01:40;2.13;;;1.77;;
13012;SDS011;22580;57.670;12.006;2022-10-16T00:04:08;1.77;;;1.67;;
13012;SDS011;22580;57.670;12.006;2022-10-16T00:06:36;1.83;;;1.73;;
13012;SDS011;22580;57.670;12.006;2022-10-16T00:09:04;4.25;;;2.10;;
13012;SDS011;22580;57.670;12.006;2022-10-16T00:11:33;2.40;;;1.50;;
13012;SDS011;22580;57.670;12.006;2022-10-16T00:14:03;3.00;;;1.70;;
13012;SDS011;22580;57.670;12.006;2022-10-16T00:16:39;1.70;;;1.23;;
13012;SDS011;22580;57.670;12.006;2022-10-16T00:19:15;1.30;;;1.20;;
13012;SDS011;22580;57.670;12.006;2022-10-16T00:21:42;2.23;;;1.43;;
13012;SDS011;22580;57.670;12.006;2022-10-16T00:24:11;1.83;;;1.40;;
13012;SDS011;22580;57.670;12.006;2022-10-16T00:26:39;1.63;;;1.40;;
13012;SDS011;22580;57.670;12.006;2022-10-16T00:29:08;2.47;;;1.60;;
13012;SDS011;22580;57.670;12.006;2022-10-16T00:31:37;1.98;;;1.30;;
13012;SDS011;22580;57.670;12.006;2022-10-16T00:34:04;1.23;;;1.03;;
13012;SDS011;22580;57.670;12.006;2022-10-16T00:36:31;1.37;;;1.20;;
13012;SDS011;22580;57.670;12.006;2022-10-16T00:38:58;1.50;;;1.00;;
13012;SDS011;22580;57.670;12.006;2022-10-16T00:41:26;1.10;;;1.00;;
13012;SDS011;22580;57.670;12.006;2022-10-16T00:43:54;1.93;;;1.20;;
13012;SDS011;22580;57.670;12.006;2022-10-16T00:46:27;1.30;;;1.17;;
13012;SDS011;22580;57.670;12.006;2022-10-16T00:48:59;1.17;;;1.00;;
13012;SDS011;22580;57.670;12.006;2022-10-16T00:51:33;1.60;;;1.00;;
13012;SDS011;22580;57.670;12.006;2022-10-16T00:54:02;0.97;;;0.80;;
13012;SDS011;22580;57.670;12.006;2022-10-16T00:56:34;1.33;;;0.80;;
13012;SDS011;22580;57.670;12.006;2022-10-16T00:59:03;1.57;;;1.27;;
13012;SDS011;22580;57.670;12.006;2022-10-16T01:01:43;1.17;;;0.80;;
13012;SDS011;22580;57.670;12.006;2022-10-16T01:04:10;1.00;;;0.90;;
13012;SDS011;22580;57.670;12.006;2022-10-16T01:06:43;0.73;;;0.60;;
13012;SDS011;22580;57.670;12.006;2022-10-16T01:09:20;1.37;;;0.80;;
13012;SDS011;22580;57.670;12.006;2022-10-16T01:11:54;0.93;;;0.63;;
13012;SDS011;22580;57.670;12.006;2022-10-16T01:14:30;2.37;;;0.80;;
13012;SDS011;22580;57.670;12.006;2022-10-16T01:17:10;0.90;;;0.70;;
13012;SDS011;22580;57.670;12.006;2022-10-16T01:19:44;1.40;;;0.93;;
13012;SDS011;22580;57.670;12.006;2022-10-16T01:22:47;1.10;;;0.77;;
13012;SDS011;22580;57.670;12.006;2022-10-16T01:25:25;1.30;;;1.00;;
13012;SDS011;22580;57.670;12.006;2022-10-16T01:28:08;2.97;;;1.23;;
13012;SDS011;22580;57.670;12.006;2022-10-16T01:30:43;0.77;;;0.77;;
13012;SDS011;22580;57.670;12.006;2022-10-16T01:33:13;1.00;;;0.63;;
13012;SDS011;22580;57.670;12.006;2022-10-16T01:35:44;0.40;;;0.40;;
13012;SDS011;22580;57.670;12.006;2022-10-16T01:38:20;1.57;;;0.70;;
13012;SDS011;22580;57.670;12.006;2022-10-16T01:40:54;2.40;;;1.00;;
13012;SDS011;22580;57.670;12.006;2022-10-16T01:43:38;1.60;;;0.87;;
13012;SDS011;22580;57.670;12.006;2022-10-16T01:46:12;2.63;;;1.00;;
13012;SDS011;22580;57.670;12.006;2022-10-16T01:48:46;2.70;;;1.30;;
13012;SDS011;22580;57.670;12.006;2022-10-16T01:51:17;1.07;;;0.77;;
13012;SDS011;22580;57.670;12.006;2022-10-16T01:53:46;1.73;;;0.73;;
13012;SDS011;22580;57.670;12.006;2022-10-16T01:56:17;1.20;;;0.80;;
13012;SDS011;22580;57.670;12.006;2022-10-16T01:58:49;0.80;;;0.60;;
13012;SDS011;22580;57.670;12.006;2022-10-16T02:01:21;0.63;;;0.40;;
13012;SDS011;22580;57.670;12.006;2022-10-16T02:03:51;0.40;;;0.40;;
13012;SDS011;22580;57.670;12.006;2022-10-16T02:06:22;0.50;;;0.50;;
13012;SDS011;22580;57.670;12.006;2022-10-16T02:08:50;0.37;;;0.37;;
13012;SDS011;22580;57.670;12.006;2022-10-16T02:11:22;0.30;;;0.30;;
13012;SDS011;22580;57.670;12.006;2022-10-16T02:13:52;0.43;;;0.30;;
13012;SDS011;22580;57.670;12.006;2022-10-16T02:16:32;0.20;;;0.20;;
13012;SDS011;22580;57.670;12.006;2022-10-16T02:19:02;0.20;;;0.20;;
13012;SDS011;22580;57.670;12.006;2022-10-16T02:21:33;0.20;;;0.20;;
13012;SDS011;22580;57.670;12.006;2022-10-16T02:24:08;0.50;;;0.37;;
13012;SDS011;22580;57.670;12.006;2022-10-16T02:26:45;1.23;;;0.43;;
13012;SDS011;22580;57.670;12.006;2022-10-16T02:29:17;0.97;;;0.57;;
13012;SDS011;22580;57.670;12.006;2022-10-16T02:31:50;0.30;;;0.30;;
13012;SDS011;22580;57.670;12.006;2022-10-16T02:34:21;0.77;;;0.70;;
13012;SDS011;22580;57.670;12.006;2022-10-16T02:36:52;0.33;;;0.33;;
13012;SDS011;22580;57.670;12.006;2022-10-16T02:39:21;0.63;;;0.40;;
13012;SDS011;22580;57.670;12.006;2022-10-16T02:41:48;0.50;;;0.50;;
13012;SDS011;22580;57.670;12.006;2022-10-16T02:44:22;0.40;;;0.40;;
13012;SDS011;22580;57.670;12.006;2022-10-16T02:46:51;0.40;;;0.40;;
13012;SDS011;22580;57.670;12.006;2022-10-16T02:49:18;0.73;;;0.40;;
13012;SDS011;22580;57.670;12.006;2022-10-16T02:51:45;0.87;;;0.53;;
13012;SDS011;22580;57.670;12.006;2022-10-16T02:54:12;0.40;;;0.30;;
13012;SDS011;22580;57.670;12.006;2022-10-16T02:56:39;0.20;;;0.20;;
13012;SDS011;22580;57.670;12.006;2022-10-16T02:59:14;0.30;;;0.30;;
13012;SDS011;22580;57.670;12.006;2022-10-16T03:01:43;0.83;;;0.70;;
13012;SDS011;22580;57.670;12.006;2022-10-16T03:04:10;1.03;;;0.67;;
13012;SDS011;22580;57.670;12.006;2022-10-16T03:06:40;1.57;;;0.33;;
13012;SDS011;22580;57.670;12.006;2022-10-16T03:09:07;0.43;;;0.43;;
13012;SDS011;22580;57.670;12.006;2022-10-16T03:11:34;0.50;;;0.37;;
13012;SDS011;22580;57.670;12.006;2022-10-16T03:14:03;0.20;;;0.20;;
13012;SDS011;22580;57.670;12.006;2022-10-16T03:16:32;0.20;;;0.20;;
13012;SDS011;22580;57.670;12.006;2022-10-16T03:19:00;0.20;;;0.20;;
13012;SDS011;22580;57.670;12.006;2022-10-16T03:21:30;0.20;;;0.20;;
13012;SDS011;22580;57.670;12.006;2022-10-16T03:23:57;0.17;;;0.17;;
13012;SDS011;22580;57.670;12.006;2022-10-16T03:26:35;0.97;;;0.20;;
13012;SDS011;22580;57.670;12.006;2022-10-16T03:29:05;0.20;;;0.20;;
13012;SDS011;22580;57.670;12.006;2022-10-16T03:31:32;0.10;;;0.10;;
13012;SDS011;22580;57.670;12.006;2022-10-16T03:34:01;0.10;;;0.10;;
13012;SDS011;22580;57.670;12.006;2022-10-16T03:36:31;0.10;;;0.10;;
13012;SDS011;22580;57.670;12.006;2022-10-16T03:38:58;0.10;;;0.10;;
13012;SDS011;22580;57.670;12.006;2022-10-16T03:41:27;0.10;;;0.10;;
13012;SDS011;22580;57.670;12.006;2022-10-16T03:43:54;0.10;;;0.10;;
13012;SDS011;22580;57.670;12.006;2022-10-16T03:46:23;0.10;;;0.10;;
13012;SDS011;22580;57.670;12.006;2022-10-16T03:48:50;0.27;;;0.20;;
13012;SDS011;22580;57.670;12.006;2022-10-16T03:51:25;0.00;;;0.00;;
13012;SDS011;22580;57.670;12.006;2022-10-16T03:53:52;0.10;;;0.10;;
13012;SDS011;22580;57.670;12.006;2022-10-16T03:56:19;0.10;;;0.00;;
13012;SDS011;22580;57.670;12.006;2022-10-16T03:58:47;0.20;;;0.20;;
13012;SDS011;22580;57.670;12.006;2022-10-16T04:01:14;0.30;;;0.10;;
13012;SDS011;22580;57.670;12.006;2022-10-16T04:03:41;0.57;;;0.20;;
13012;SDS011;22580;57.670;12.006;2022-10-16T04:06:13;0.20;;;0.20;;
13012;SDS011;22580;57.670;12.006;2022-10-16T04:08:43;0.20;;;0.20;;
13012;SDS011;22580;57.670;12.006;2022-10-16T04:11:10;0.30;;;0.20;;
13012;SDS011;22580;57.670;12.006;2022-10-16T04:13:37;0.23;;;0.20;;
13012;SDS011;22580;57.670;12.006;2022-10-16T04:16:08;0.40;;;0.40;;
13012;SDS011;22580;57.670;12.006;2022-10-16T04:18:36;0.30;;;0.30;;
13012;SDS011;22580;57.670;12.006;2022-10-16T04:21:03;0.40;;;0.40;;
13012;SDS011;22580;57.670;12.006;2022-10-16T04:23:30;0.27;;;0.27;;
13012;SDS011;22580;57.670;12.006;2022-10-16T04:26:01;0.43;;;0.43;;
13012;SDS011;22580;57.670;12.006;2022-10-16T04:28:28;0.23;;;0.23;;
13012;SDS011;22580;57.670;12.006;2022-10-16T04:30:55;0.33;;;0.20;;
13012;SDS011;22580;57.670;12.006;2022-10-16T04:33:23;0.40;;;0.40;;
13012;SDS011;22580;57.670;12.006;2022-10-16T04:35:55;0.40;;;0.40;;
13012;SDS011;22580;57.670;12.006;2022-10-16T04:38:23;0.30;;;0.30;;
13012;SDS011;22580;57.670;12.006;2022-10-16T04:40:51;0.23;;;0.23;;
13012;SDS011;22580;57.670;12.006;2022-10-16T04:43:20;0.20;;;0.20;;
13012;SDS011;22580;57.670;12.006;2022-10-16T04:45:51;0.10;;;0.10;;
13012;SDS011;22580;57.670;12.006;2022-10-16T04:48:22;0.20;;;0.20;;
13012;SDS011;22580;57.670;12.006;2022-10-16T04:50:49;0.33;;;0.10;;
13012;SDS011;22580;57.670;12.006;2022-10-16T04:53:16;0.10;;;0.10;;
13012;SDS011;22580;57.670;12.006;2022-10-16T04:55:45;0.10;;;0.10;;
13012;SDS011;22580;57.670;12.006;2022-10-16T04:58:14;0.00;;;0.00;;
13012;SDS011;22580;57.670;12.006;2022-10-16T05:00:43;0.20;;;0.10;;
13012;SDS011;22580;57.670;12.006;2022-10-16T05:03:12;0.10;;;0.10;;
13012;SDS011;22580;57.670;12.006;2022-10-16T05:05:42;0.10;;;0.10;;
13012;SDS011;22580;57.670;12.006;2022-10-16T05:08:10;0.20;;;0.20;;
13012;SDS011;22580;57.670;12.006;2022-10-16T05:10:37;0.07;;;0.07;;
13012;SDS011;22580;57.670;12.006;2022-10-16T05:13:04;0.10;;;0.10;;
13012;SDS011;22580;57.670;12.006;2022-10-16T05:15:38;0.00;;;0.00;;
13012;SDS011;22580;57.670;12.006;2022-10-16T05:18:09;0.10;;;0.10;;
13012;SDS011;22580;57.670;12.006;2022-10-16T05:20:41;0.63;;;0.00;;
13012;SDS011;22580;57.670;12.006;2022-10-16T05:23:08;0.00;;;0.00;;
13012;SDS011;22580;57.670;12.006;2022-10-16T05:25:44;0.20;;;0.03;;
13012;SDS011;22580;57.670;12.006;2022-10-16T05:28:19;0.10;;;0.10;;
13012;SDS011;22580;57.670;12.006;2022-10-16T05:30:46;0.10;;;0.10;;
13012;SDS011;22580;57.670;12.006;2022-10-16T05:33:15;0.10;;;0.10;;
13012;SDS011;22580;57.670;12.006;2022-10-16T05:35:42;0.10;;;0.10;;
13012;SDS011;22580;57.670;12.006;2022-10-16T05:38:12;0.20;;;0.20;;
13012;SDS011;22580;57.670;12.006;2022-10-16T05:40:39;0.20;;;0.20;;
13012;SDS011;22580;57.670;12.006;2022-10-16T05:43:06;0.40;;;0.40;;
13012;SDS011;22580;57.670;12.006;2022-10-16T05:45:36;0.30;;;0.30;;
13012;SDS011;22580;57.670;12.006;2022-10-16T05:48:04;0.50;;;0.40;;
13012;SDS011;22580;57.670;12.006;2022-10-16T05:50:36;0.40;;;0.40;;
13012;SDS011;22580;57.670;12.006;2022-10-16T05:53:03;0.50;;;0.50;;
13012;SDS011;22580;57.670;12.006;2022-10-16T05:55:30;0.60;;;0.60;;
13012;SDS011;22580;57.670;12.006;2022-10-16T05:58:03;0.60;;;0.60;;
13012;SDS011;22580;57.670;12.006;2022-10-16T06:00:30;1.77;;;0.80;;
13012;SDS011;22580;57.670;12.006;2022-10-16T06:03:00;0.60;;;0.60;;
13012;SDS011;22580;57.670;12.006;2022-10-16T06:05:32;0.87;;;0.60;;
13012;SDS011;22580;57.670;12.006;2022-10-16T06:08:01;0.33;;;0.33;;
13012;SDS011;22580;57.670;12.006;2022-10-16T06:10:30;0.40;;;0.30;;
13012;SDS011;22580;57.670;12.006;2022-10-16T06:12:58;0.30;;;0.30;;
13012;SDS011;22580;57.670;12.006;2022-10-16T06:15:27;0.20;;;0.20;;
13012;SDS011;22580;57.670;12.006;2022-10-16T06:17:54;0.23;;;0.20;;
13012;SDS011;22580;57.670;12.006;2022-10-16T06:20:21;0.40;;;0.30;;
13012;SDS011;22580;57.670;12.006;2022-10-16T06:22:50;0.30;;;0.30;;
13012;SDS011;22580;57.670;12.006;2022-10-16T06:25:23;0.20;;;0.20;;
13012;SDS011;22580;57.670;12.006;2022-10-16T06:27:52;0.33;;;0.33;;
13012;SDS011;22580;57.670;12.006;2022-10-16T06:30:28;0.40;;;0.40;;
13012;SDS011;22580;57.670;12.006;2022-10-16T06:32:55;0.30;;;0.30;;
13012;SDS011;22580;57.670;12.006;2022-10-16T06:35:23;0.30;;;0.30;;
13012;SDS011;22580;57.670;12.006;2022-10-16T06:37:52;0.40;;;0.40;;
13012;SDS011;22580;57.670;12.006;2022-10-16T06:40:24;0.33;;;0.33;;
13012;SDS011;22580;57.670;12.006;2022-10-16T06:42:54;0.60;;;0.50;;
13012;SDS011;22580;57.670;12.006;2022-10-16T06:45:21;0.50;;;0.50;;
13012;SDS011;22580;57.670;12.006;2022-10-16T06:47:55;1.50;;;1.00;;
13012;SDS011;22580;57.670;12.006;2022-10-16T06:50:25;1.73;;;1.00;;
13012;SDS011;22580;57.670;12.006;2022-10-16T06:52:52;1.37;;;1.17;;
13012;SDS011;22580;57.670;12.006;2022-10-16T06:55:19;2.60;;;1.10;;
13012;SDS011;22580;57.670;12.006;2022-10-16T06:57:51;1.23;;;1.00;;
13012;SDS011;22580;57.670;12.006;2022-10-16T07:00:20;1.30;;;1.20;;
13012;SDS011;22580;57.670;12.006;2022-10-16T07:02:47;1.60;;;1.13;;
13012;SDS011;22580;57.670;12.006;2022-10-16T07:05:14;1.20;;;0.93;;
13012;SDS011;22580;57.670;12.006;2022-10-16T07:07:43;0.90;;;0.90;;
13012;SDS011;22580;57.670;12.006;2022-10-16T07:10:10;1.00;;;0.90;;
13012;SDS011;22580;57.670;12.006;2022-10-16T07:12:39;1.13;;;0.93;;
13012;SDS011;22580;57.670;12.006;2022-10-16T07:15:13;1.53;;;1.20;;
13012;SDS011;22580;57.670;12.006;2022-10-16T07:17:40;1.37;;;1.27;;
13012;SDS011;22580;57.670;12.006;2022-10-16T07:20:09;1.97;;;1.30;;
13012;SDS011;22580;57.670;12.006;2022-10-16T07:22:56;1.33;;;1.03;;
13012;SDS011;22580;57.670;12.006;2022-10-16T07:25:23;0.80;;;0.80;;
13012;SDS011;22580;57.670;12.006;2022-10-16T07:27:54;1.93;;;0.97;;
13012;SDS011;22580;57.670;12.006;2022-10-16T07:30:24;1.70;;;1.30;;
13012;SDS011;22580;57.670;12.006;2022-10-16T07:32:51;2.27;;;1.10;;
13012;SDS011;22580;57.670;12.006;2022-10-16T07:35:18;1.90;;;0.83;;
13012;SDS011;22580;57.670;12.006;2022-10-16T07:37:47;2.37;;;1.07;;
13012;SDS011;22580;57.670;12.006;2022-10-16T07:40:22;1.30;;;1.10;;
13012;SDS011;22580;57.670;12.006;2022-10-16T07:42:52;1.53;;;1.00;;
13012;SDS011;22580;57.670;12.006;2022-10-16T07:45:19;2.80;;;1.10;;
13012;SDS011;22580;57.670;12.006;2022-10-16T07:47:48;2.20;;;0.87;;
13012;SDS011;22580;57.670;12.006;2022-10-16T07:50:22;2.17;;;1.20;;
13012;SDS011;22580;57.670;12.006;2022-10-16T07:52:51;2.67;;;1.47;;
13012;SDS011;22580;57.670;12.006;2022-10-16T07:55:20;1.83;;;0.90;;
13012;SDS011;22580;57.670;12.006;2022-10-16T07:57:47;1.70;;;1.03;;
13012;SDS011;22580;57.670;12.006;2022-10-16T08:00:15;2.50;;;1.00;;
13012;SDS011;22580;57.670;12.006;2022-10-16T08:02:44;0.73;;;0.50;;
13012;SDS011;22580;57.670;12.006;2022-10-16T08:05:13;0.80;;;0.50;;
13012;SDS011;22580;57.670;12.006;2022-10-16T08:07:40;1.43;;;0.97;;
13012;SDS011;22580;57.670;12.006;2022-10-16T08:10:19;1.35;;;0.90;;
13012;SDS011;22580;57.670;12.006;2022-10-16T08:12:48;1.67;;;0.83;;
13012;SDS011;22580;57.670;12.006;2022-10-16T08:15:15;2.07;;;0.93;;
13012;SDS011;22580;57.670;12.006;2022-10-16T08:17:42;2.90;;;1.40;;
13012;SDS011;22580;57.670;12.006;2022-10-16T08:20:10;1.17;;;1.00;;
13012;SDS011;22580;57.670;12.006;2022-10-16T08:22:40;3.63;;;1.50;;
13012;SDS011;22580;57.670;12.006;2022-10-16T08:25:10;2.90;;;1.30;;
13012;SDS011;22580;57.670;12.006;2022-10-16T08:27:37;3.30;;;1.30;;
13012;SDS011;22580;57.670;12.006;2022-10-16T08:30:06;3.70;;;1.40;;
13012;SDS011;22580;57.670;12.006;2022-10-16T08:32:35;5.17;;;1.80;;
13012;SDS011;22580;57.670;12.006;2022-10-16T08:35:02;3.70;;;1.40;;
13012;SDS011;22580;57.670;12.006;2022-10-16T08:37:30;2.13;;;1.15;;
13012;SDS011;22580;57.670;12.006;2022-10-16T08:39:59;3.30;;;1.30;;
13012;SDS011;22580;57.670;12.006;2022-10-16T08:42:39;3.20;;;1.60;;
13012;SDS011;22580;57.670;12.006;2022-10-16T08:45:34;3.45;;;1.20;;
13012;SDS011;22580;57.670;12.006;2022-10-16T08:48:15;2.53;;;1.27;;
13012;SDS011;22580;57.670;12.006;2022-10-16T08:50:46;4.43;;;1.20;;
13012;SDS011;22580;57.670;12.006;2022-10-16T08:53:15;3.17;;;1.23;;
13012;SDS011;22580;57.670;12.006;2022-10-16T08:55:50;2.10;;;1.00;;
13012;SDS011;22580;57.670;12.006;2022-10-16T08:58:23;4.05;;;1.10;;
13012;SDS011;22580;57.670;12.006;2022-10-16T09:00:58;3.33;;;1.38;;
13012;SDS011;22580;57.670;12.006;2022-10-16T09:03:32;3.08;;;1.48;;
13012;SDS011;22580;57.670;12.006;2022-10-16T09:09:10;3.60;;;1.63;;
13012;SDS011;22580;57.670;12.006;2022-10-16T09:11:59;2.75;;;1.35;;
13012;SDS011;22580;57.670;12.006;2022-10-16T09:14:39;2.83;;;1.80;;
13012;SDS011;22580;57.670;12.006;2022-10-16T09:17:18;4.70;;;1.55;;
13012;SDS011;22580;57.670;12.006;2022-10-16T09:20:02;2.67;;;1.30;;
13012;SDS011;22580;57.670;12.006;2022-10-16T09:22:40;7.25;;;1.95;;
13012;SDS011;22580;57.670;12.006;2022-10-16T09:25:10;3.95;;;1.67;;
13012;SDS011;22580;57.670;12.006;2022-10-16T09:27:45;2.65;;;1.40;;
13012;SDS011;22580;57.670;12.006;2022-10-16T09:30:15;4.38;;;1.60;;
13012;SDS011;22580;57.670;12.006;2022-10-16T09:32:44;3.95;;;1.60;;
13012;SDS011;22580;57.670;12.006;2022-10-16T09:35:16;5.25;;;1.90;;
13012;SDS011;22580;57.670;12.006;2022-10-16T09:37:45;2.38;;;1.10;;
13012;SDS011;22580;57.670;12.006;2022-10-16T09:40:24;2.90;;;1.60;;
13012;SDS011;22580;57.670;12.006;2022-10-16T09:42:55;4.97;;;1.98;;
13012;SDS011;22580;57.670;12.006;2022-10-16T09:45:28;3.83;;;1.60;;
13012;SDS011;22580;57.670;12.006;2022-10-16T09:47:55;3.55;;;1.63;;
13012;SDS011;22580;57.670;12.006;2022-10-16T09:50:23;4.38;;;1.50;;
13012;SDS011;22580;57.670;12.006;2022-10-16T09:55:47;3.45;;;1.55;;
13012;SDS011;22580;57.670;12.006;2022-10-16T09:58:16;3.55;;;1.58;;
13012;SDS011;22580;57.670;12.006;2022-10-16T10:00:48;3.33;;;1.80;;
13012;SDS011;22580;57.670;12.006;2022-10-16T10:03:23;4.25;;;1.73;;
13012;SDS011;22580;57.670;12.006;2022-10-16T10:06:16;4.10;;;1.77;;
13012;SDS011;22580;57.670;12.006;2022-10-16T10:08:54;4.85;;;1.90;;
13012;SDS011;22580;57.670;12.006;2022-10-16T10:11:43;4.78;;;1.70;;
13012;SDS011;22580;57.670;12.006;2022-10-16T10:14:18;6.07;;;1.90;;
13012;SDS011;22580;57.670;12.006;2022-10-16T10:17:02;4.40;;;1.75;;
13012;SDS011;22580;57.670;12.006;2022-10-16T10:19:38;4.53;;;1.70;;
13012;SDS011;22580;57.670;12.006;2022-10-16T10:22:15;4.95;;;1.73;;
13012;SDS011;22580;57.670;12.006;2022-10-16T10:24:54;3.53;;;1.40;;
13012;SDS011;22580;57.670;12.006;2022-10-16T10:27:47;4.60;;;1.80;;
13012;SDS011;22580;57.670;12.006;2022-10-16T10:30:27;5.13;;;1.60;;
13012;SDS011;22580;57.670;12.006;2022-10-16T10:33:09;6.78;;;2.22;;
13012;SDS011;22580;57.670;12.006;2022-10-16T10:35:48;5.03;;;1.45;;
13012;SDS011;22580;57.670;12.006;2022-10-16T10:38:28;4.60;;;1.70;;
13012;SDS011;22580;57.670;12.006;2022-10-16T10:41:04;4.30;;;1.90;;
13012;SDS011;22580;57.670;12.006;2022-10-16T10:43:54;4.25;;;1.75;;
13012;SDS011;22580;57.670;12.006;2022-10-16T10:46:35;6.32;;;1.75;;
13012;SDS011;22580;57.670;12.006;2022-10-16T10:49:16;7.15;;;2.13;;
13012;SDS011;22580;57.670;12.006;2022-10-16T10:52:02;5.57;;;2.05;;
13012;SDS011;22580;57.670;12.006;2022-10-16T10:54:41;3.30;;;1.52;;
13012;SDS011;22580;57.670;12.006;2022-10-16T10:57:28;3.05;;;1.00;;
13012;SDS011;22580;57.670;12.006;2022-10-16T11:00:03;4.53;;;1.40;;
13012;SDS011;22580;57.670;12.006;2022-10-16T11:02:48;2.67;;;1.52;;
13012;SDS011;22580;57.670;12.006;2022-10-16T11:05:33;3.38;;;1.45;;
13012;SDS011;22580;57.670;12.006;2022-10-16T11:08:08;6.15;;;2.38;;
13012;SDS011;22580;57.670;12.006;2022-10-16T11:10:44;6.72;;;1.95;;
13012;SDS011;22580;57.670;12.006;2022-10-16T11:13:19;2.17;;;1.30;;
13012;SDS011;22580;57.670;12.006;2022-10-16T11:15:59;6.68;;;2.15;;
13012;SDS011;22580;57.670;12.006;2022-10-16T11:18:32;5.25;;;1.92;;
13012;SDS011;22580;57.670;12.006;2022-10-16T11:21:10;3.80;;;1.70;;
13012;SDS011;22580;57.670;12.006;2022-10-16T11:23:41;3.30;;;1.50;;
13012;SDS011;22580;57.670;12.006;2022-10-16T11:26:20;4.43;;;2.05;;
13012;SDS011;22580;57.670;12.006;2022-10-16T11:28:53;3.73;;;1.90;;
13012;SDS011;22580;57.670;12.006;2022-10-16T11:31:25;2.83;;;1.42;;
13012;SDS011;22580;57.670;12.006;2022-10-16T11:34:03;3.88;;;1.50;;
13012;SDS011;22580;57.670;12.006;2022-10-16T11:36:42;3.53;;;1.88;;
13012;SDS011;22580;57.670;12.006;2022-10-16T11:39:18;4.75;;;1.88;;
13012;SDS011;22580;57.670;12.006;2022-10-16T11:41:47;5.00;;;2.00;;
13012;SDS011;22580;57.670;12.006;2022-10-16T11:44:20;7.20;;;1.90;;
13012;SDS011;22580;57.670;12.006;2022-10-16T11:47:09;5.03;;;1.90;;
13012;SDS011;22580;57.670;12.006;2022-10-16T11:49:47;5.32;;;1.42;;
13012;SDS011;22580;57.670;12.006;2022-10-16T11:52:20;3.28;;;1.42;;
13012;SDS011;22580;57.670;12.006;2022-10-16T11:54:54;3.13;;;1.33;;
13012;SDS011;22580;57.670;12.006;2022-10-16T11:57:29;2.38;;;1.17;;
13012;SDS011;22580;57.670;12.006;2022-10-16T12:00:02;4.15;;;1.50;;
13012;SDS011;22580;57.670;12.006;2022-10-16T12:02:41;4.57;;;1.40;;
13012;SDS011;22580;57.670;12.006;2022-10-16T12:05:23;3.33;;;1.52;;
13012;SDS011;22580;57.670;12.006;2022-10-16T12:08:02;3.42;;;1.10;;
13012;SDS011;22580;57.670;12.006;2022-10-16T12:10:34;4.03;;;0.88;;
13012;SDS011;22580;57.670;12.006;2022-10-16T12:13:02;1.88;;;0.60;;
13012;SDS011;22580;57.670;12.006;2022-10-16T12:15:30;0.90;;;0.60;;
13012;SDS011;22580;57.670;12.006;2022-10-16T12:18:00;1.27;;;0.67;;
13012;SDS011;22580;57.670;12.006;2022-10-16T12:20:30;2.80;;;0.80;;
13012;SDS011;22580;57.670;12.006;2022-10-16T12:23:04;1.57;;;0.97;;
13012;SDS011;22580;57.670;12.006;2022-10-16T12:25:33;2.27;;;0.70;;
13012;SDS011;22580;57.670;12.006;2022-10-16T12:28:03;2.43;;;0.77;;
13012;SDS011;22580;57.670;12.006;2022-10-16T12:30:33;2.00;;;0.60;;
13012;SDS011;22580;57.670;12.006;2022-10-16T12:33:03;1.53;;;0.90;;
13012;SDS011;22580;57.670;12.006;2022-10-16T12:35:33;3.73;;;1.03;;
13012;SDS011;22580;57.670;12.006;2022-10-16T12:38:15;1.90;;;1.00;;
13012;SDS011;22580;57.670;12.006;2022-10-16T12:40:44;3.40;;;1.27;;
13012;SDS011;22580;57.670;12.006;2022-10-16T12:46:22;2.23;;;0.70;;
13012;SDS011;22580;57.670;12.006;2022-10-16T12:49:05;1.47;;;0.50;;
13012;SDS011;22580;57.670;12.006;2022-10-16T12:51:48;2.17;;;0.90;;
13012;SDS011;22580;57.670;12.006;2022-10-16T12:54:16;4.20;;;0.80;;
13012;SDS011;22580;57.670;12.006;2022-10-16T12:56:48;1.90;;;1.03;;
13012;SDS011;22580;57.670;12.006;2022-10-16T12:59:28;2.40;;;1.00;;
13012;SDS011;22580;57.670;12.006;2022-10-16T13:02:08;3.67;;;1.10;;
13012;SDS011;22580;57.670;12.006;2022-10-16T13:05:14;3.40;;;1.63;;
13012;SDS011;22580;57.670;12.006;2022-10-16T13:07:59;2.20;;;1.13;;
13012;SDS011;22580;57.670;12.006;2022-10-16T13:10:45;2.43;;;1.07;;
13012;SDS011;22580;57.670;12.006;2022-10-16T13:13:34;2.27;;;1.20;;
13012;SDS011;22580;57.670;12.006;2022-10-16T13:16:48;1.60;;;0.90;;
13012;SDS011;22580;57.670;12.006;2022-10-16T13:19:28;2.07;;;0.90;;
13012;SDS011;22580;57.670;12.006;2022-10-16T13:22:05;1.98;;;1.05;;
13012;SDS011;22580;57.670;12.006;2022-10-16T13:24:49;1.23;;;0.73;;
13012;SDS011;22580;57.670;12.006;2022-10-16T13:27:30;2.67;;;1.13;;
13012;SDS011;22580;57.670;12.006;2022-10-16T13:30:12;1.83;;;0.95;;
13012;SDS011;22580;57.670;12.006;2022-10-16T13:32:46;1.48;;;0.65;;
13012;SDS011;22580;57.670;12.006;2022-10-16T13:35:25;5.57;;;1.20;;
13012;SDS011;22580;57.670;12.006;2022-10-16T13:38:03;2.97;;;0.93;;
13012;SDS011;22580;57.670;12.006;2022-10-16T13:40:33;2.13;;;0.80;;
13012;SDS011;22580;57.670;12.006;2022-10-16T13:43:03;2.17;;;0.85;;
13012;SDS011;22580;57.670;12.006;2022-10-16T13:45:30;3.08;;;1.00;;
13012;SDS011;22580;57.670;12.006;2022-10-16T13:48:05;2.70;;;1.05;;
13012;SDS011;22580;57.670;12.006;2022-10-16T13:50:37;4.40;;;1.20;;
13012;SDS011;22580;57.670;12.006;2022-10-16T13:53:05;2.08;;;0.82;;
13012;SDS011;22580;57.670;12.006;2022-10-16T13:55:34;2.88;;;1.05;;
13012;SDS011;22580;57.670;12.006;2022-10-16T13:58:05;2.88;;;0.93;;
13012;SDS011;22580;57.670;12.006;2022-10-16T14:00:34;2.22;;;0.98;;
13012;SDS011;22580;57.670;12.006;2022-10-16T14:03:03;3.25;;;1.13;;
13012;SDS011;22580;57.670;12.006;2022-10-16T14:05:34;2.90;;;1.10;;
13012;SDS011;22580;57.670;12.006;2022-10-16T14:08:09;4.47;;;1.30;;
13012;SDS011;22580;57.670;12.006;2022-10-16T14:10:42;4.22;;;1.40;;
13012;SDS011;22580;57.670;12.006;2022-10-16T14:13:19;3.33;;;1.25;;
13012;SDS011;22580;57.670;12.006;2022-10-16T14:15:55;2.57;;;1.10;;
13012;SDS011;22580;57.670;12.006;2022-10-16T14:18:24;2.92;;;0.90;;
13012;SDS011;22580;57.670;12.006;2022-10-16T14:21:01;3.00;;;1.15;;
13012;SDS011;22580;57.670;12.006;2022-10-16T14:23:37;2.05;;;1.20;;
13012;SDS011;22580;57.670;12.006;2022-10-16T14:26:17;4.60;;;1.30;;
13012;SDS011;22580;57.670;12.006;2022-10-16T14:28:47;2.93;;;1.07;;
13012;SDS011;22580;57.670;12.006;2022-10-16T14:31:24;4.03;;;1.33;;
13012;SDS011;22580;57.670;12.006;2022-10-16T14:33:53;1.45;;;1.00;;
13012;SDS011;22580;57.670;12.006;2022-10-16T14:36:22;3.00;;;1.17;;
13012;SDS011;22580;57.670;12.006;2022-10-16T14:38:55;3.83;;;1.27;;
13012;SDS011;22580;57.670;12.006;2022-10-16T14:41:31;0.93;;;0.65;;
13012;SDS011;22580;57.670;12.006;2022-10-16T14:44:09;3.67;;;1.15;;
13012;SDS011;22580;57.670;12.006;2022-10-16T14:46:38;3.63;;;1.03;;
13012;SDS011;22580;57.670;12.006;2022-10-16T14:49:14;3.80;;;1.20;;
13012;SDS011;22580;57.670;12.006;2022-10-16T14:51:46;2.38;;;1.30;;
13012;SDS011;22580;57.670;12.006;2022-10-16T14:54:14;3.63;;;1.25;;
13012;SDS011;22580;57.670;12.006;2022-10-16T14:56:45;3.25;;;1.33;;
13012;SDS011;22580;57.670;12.006;2022-10-16T14:59:15;2.80;;;1.38;;
13012;SDS011;22580;57.670;12.006;2022-10-16T15:01:48;2.22;;;1.15;;
13012;SDS011;22580;57.670;12.006;2022-10-16T15:04:15;2.80;;;1.20;;
13012;SDS011;22580;57.670;12.006;2022-10-16T15:06:45;4.33;;;1.50;;
13012;SDS011;22580;57.670;12.006;2022-10-16T15:09:14;3.77;;;1.47;;
13012;SDS011;22580;57.670;12.006;2022-10-16T15:11:44;2.83;;;1.17;;
13012;SDS011;22580;57.670;12.006;2022-10-16T15:14:13;2.53;;;1.20;;